Time;durP1;ratioP1;P1;durP2;ratioP2;P2;SDS_P1;SDS_P2;PMS_P1;PMS_P2;Temp;Humidity;BMP_temperature;BMP_pressure;BME280_temperature;BME280_humidity;BME280_pressure;Samples;Min_cycle;Max_cycle;Signal;HPM_P1;HPM_P2
2023/11/23 00:01:12;;;;;;;16.95;10.10;;;1.40;1.00;;;;;;7379665;19;19919;-69
2023/11/23 00:03:42;;;;;;;19.58;10.52;;;1.40;1.00;;;;;;7377409;19;20006;-69
2023/11/23 00:06:12;;;;;;;17.67;10.90;;;1.40;1.00;;;;;;7378153;19;20040;-69
2023/11/23 00:08:43;;;;;;;17.60;10.85;;;1.40;1.00;;;;;;7379840;19;20029;-69
2023/11/23 00:11:16;;;;;;;18.60;11.70;;;1.30;1.00;;;;;;7378533;19;27060;-67
2023/11/23 00:13:46;;;;;;;15.77;10.90;;;1.30;1.00;;;;;;7377282;19;20462;-68
2023/11/23 00:16:16;;;;;;;17.15;11.00;;;1.30;1.00;;;;;;7377666;19;20507;-68
2023/11/23 00:18:46;;;;;;;18.45;11.88;;;1.30;1.00;;;;;;7378685;19;20011;-68
2023/11/23 00:21:16;;;;;;;19.35;11.88;;;1.40;1.00;;;;;;7378677;19;20010;-68
2023/11/23 00:23:46;;;;;;;18.65;11.02;;;1.30;1.00;;;;;;7377630;19;20011;-68
2023/11/23 00:26:18;;;;;;;17.65;11.73;;;1.40;1.00;;;;;;7377277;19;20043;-68
2023/11/23 00:28:58;;;;;;;17.30;11.35;;;1.40;1.00;;;;;;7372441;19;20031;-68
2023/11/23 00:31:28;;;;;;;15.82;10.32;;;1.40;1.00;;;;;;7377692;19;20487;-69
2023/11/23 00:33:58;;;;;;;18.00;11.52;;;1.40;1.00;;;;;;7377097;19;20024;-68
2023/11/23 00:36:30;;;;;;;17.63;11.27;;;1.40;1.00;;;;;;7376685;19;20023;-68
2023/11/23 00:39:00;;;;;;;18.13;11.18;;;1.50;1.00;;;;;;7378289;19;20045;-68
2023/11/23 00:41:32;;;;;;;20.55;11.32;;;1.40;1.00;;;;;;7377496;19;20357;-69
2023/11/23 00:44:04;;;;;;;16.35;10.50;;;1.50;1.00;;;;;;7376783;19;20027;-68
2023/11/23 00:46:35;;;;;;;20.50;11.52;;;1.50;1.00;;;;;;7376483;19;20523;-68
2023/11/23 00:49:06;;;;;;;15.15;10.43;;;1.50;1.00;;;;;;7377379;19;20031;-68
2023/11/23 00:51:36;;;;;;;16.55;11.27;;;1.60;1.00;;;;;;7376426;19;20074;-69
2023/11/23 00:54:07;;;;;;;16.25;10.90;;;1.60;1.00;;;;;;7376778;19;20015;-68
2023/11/23 00:56:39;;;;;;;16.85;10.73;;;1.60;1.00;;;;;;7374502;19;20006;-68
2023/11/23 00:59:09;;;;;;;18.92;10.80;;;1.60;1.00;;;;;;7376166;19;20015;-68
2023/11/23 01:01:39;;;;;;;15.82;10.10;;;1.60;1.00;;;;;;7377103;19;20029;-68
2023/11/23 01:04:10;;;;;;;18.98;10.88;;;1.60;1.00;;;;;;7375814;19;20019;-68
2023/11/23 01:06:41;;;;;;;17.15;11.07;;;1.60;1.00;;;;;;7376784;19;20039;-69
2023/11/23 01:09:11;;;;;;;18.77;11.18;;;1.60;1.00;;;;;;7376357;19;20035;-68
2023/11/23 01:11:45;;;;;;;14.75;9.93;;;1.60;1.00;;;;;;7376426;19;20032;-68
2023/11/23 01:14:15;;;;;;;16.75;10.45;;;1.60;1.00;;;;;;7377032;19;20063;-68
2023/11/23 01:16:46;;;;;;;17.35;11.30;;;1.60;1.00;;;;;;7375576;19;20051;-68
2023/11/23 01:19:16;;;;;;;16.77;10.95;;;1.60;1.00;;;;;;7376319;19;20462;-68
2023/11/23 01:21:46;;;;;;;18.30;10.95;;;1.60;1.00;;;;;;7377551;19;20362;-68
2023/11/23 01:24:17;;;;;;;16.05;10.55;;;1.60;1.00;;;;;;7378170;19;20470;-68
2023/11/23 01:26:49;;;;;;;16.52;10.88;;;1.60;1.00;;;;;;7375796;19;20025;-68
2023/11/23 01:29:20;;;;;;;16.60;10.75;;;1.60;1.00;;;;;;7376139;19;20018;-68
2023/11/23 01:31:50;;;;;;;16.85;11.43;;;1.60;1.00;;;;;;7375942;19;20014;-68
2023/11/23 01:34:20;;;;;;;19.15;11.27;;;1.70;1.00;;;;;;7375867;19;20486;-68
2023/11/23 01:36:51;;;;;;;15.00;9.98;;;1.70;1.00;;;;;;7375469;19;20038;-68
2023/11/23 01:39:21;;;;;;;16.23;10.77;;;1.60;1.00;;;;;;7374811;19;20006;-69
2023/11/23 01:41:54;;;;;;;19.02;11.45;;;1.60;1.00;;;;;;7375031;19;20009;-68
2023/11/23 01:44:24;;;;;;;17.95;10.48;;;1.60;1.00;;;;;;7372141;19;20560;-68
2023/11/23 01:46:54;;;;;;;17.08;10.93;;;1.60;1.00;;;;;;7372898;19;20415;-68
2023/11/23 01:49:27;;;;;;;18.88;10.82;;;1.60;1.00;;;;;;7373122;19;20037;-68
2023/11/23 01:51:58;;;;;;;17.15;10.20;;;1.50;1.00;;;;;;7373091;19;20375;-69
2023/11/23 01:54:29;;;;;;;18.83;11.18;;;1.40;1.00;;;;;;7374289;19;20017;-68
2023/11/23 01:57:02;;;;;;;16.33;10.68;;;1.40;1.00;;;;;;7375488;19;20022;-68
2023/11/23 01:59:31;;;;;;;16.48;10.75;;;1.40;1.00;;;;;;7374538;19;20471;-68
2023/11/23 02:02:02;;;;;;;17.45;11.20;;;1.30;1.00;;;;;;7376064;19;20072;-68
2023/11/23 02:04:33;;;;;;;18.33;11.90;;;1.30;1.00;;;;;;7373840;19;20015;-68
2023/11/23 02:07:05;;;;;;;17.27;10.95;;;1.20;1.00;;;;;;7374209;19;20491;-68
2023/11/23 02:09:35;;;;;;;20.63;11.50;;;1.20;1.00;;;;;;7381503;19;20022;-68
2023/11/23 02:12:09;;;;;;;19.08;11.90;;;1.10;1.00;;;;;;7381443;19;20010;-68
2023/11/23 02:14:41;;;;;;;;;;;1.20;1.00;;;;;;7380852;19;20014;-68
2023/11/23 02:17:18;;;;;;;18.17;11.15;;;1.20;1.00;;;;;;7382145;19;19975;-68
2023/11/23 02:19:49;;;;;;;19.25;11.90;;;1.20;1.00;;;;;;7381124;19;20050;-68
2023/11/23 02:22:20;;;;;;;22.25;12.23;;;1.10;1.00;;;;;;7381728;19;20074;-68
2023/11/23 02:24:52;;;;;;;20.85;12.35;;;1.20;1.00;;;;;;7379961;19;20546;-68
2023/11/23 02:27:22;;;;;;;20.63;12.15;;;1.20;1.00;;;;;;7381272;19;20027;-68
2023/11/23 02:29:52;;;;;;;26.40;12.75;;;1.20;1.00;;;;;;7380725;19;20463;-68
2023/11/23 02:32:25;;;;;;;18.58;11.82;;;1.20;1.00;;;;;;7380619;19;20040;-68
2023/11/23 02:34:53;;;;;;;17.63;11.30;;;1.20;1.00;;;;;;7380741;19;20353;-68
2023/11/23 02:37:23;;;;;;;21.55;12.68;;;1.20;1.00;;;;;;7382680;19;20017;-68
2023/11/23 02:39:55;;;;;;;32.35;14.00;;;1.20;1.00;;;;;;7380683;19;20057;-68
2023/11/23 02:42:28;;;;;;;20.83;12.63;;;1.10;1.00;;;;;;7381644;19;20031;-68
2023/11/23 02:44:58;;;;;;;21.08;13.52;;;1.10;1.00;;;;;;7377825;19;20367;-68
2023/11/23 02:47:28;;;;;;;21.80;12.65;;;1.10;1.00;;;;;;7382428;19;20036;-68
2023/11/23 02:49:58;;;;;;;19.83;12.30;;;1.00;1.00;;;;;;7375100;19;20006;-68
2023/11/23 02:52:29;;;;;;;20.50;12.25;;;1.00;1.00;;;;;;7378652;19;20015;-68
2023/11/23 02:55:01;;;;;;;22.08;12.35;;;0.90;1.00;;;;;;7378658;19;20027;-70
2023/11/23 02:57:32;;;;;;;23.60;13.45;;;0.90;1.00;;;;;;7379761;19;20807;-69
2023/11/23 03:00:02;;;;;;;21.88;13.75;;;0.90;1.00;;;;;;7380065;19;20379;-68
2023/11/23 03:02:32;;;;;;;21.80;13.07;;;0.90;1.00;;;;;;7379227;19;20006;-68
2023/11/23 03:05:03;;;;;;;23.02;12.98;;;0.90;1.00;;;;;;7378602;19;20015;-68
2023/11/23 03:07:33;;;;;;;23.73;12.63;;;0.90;1.00;;;;;;7380042;19;20341;-68
2023/11/23 03:10:09;;;;;;;23.33;13.70;;;0.80;1.00;;;;;;7378844;19;20098;-68
2023/11/23 03:12:39;;;;;;;24.65;12.80;;;0.70;1.00;;;;;;7379212;19;20021;-67
2023/11/23 03:15:10;;;;;;;24.75;14.07;;;0.70;1.00;;;;;;7377841;19;20007;-68
2023/11/23 03:17:40;;;;;;;21.90;12.60;;;0.70;1.00;;;;;;7379783;19;20082;-68
2023/11/23 03:20:12;;;;;;;18.83;12.07;;;0.70;1.00;;;;;;7378723;19;20010;-68
2023/11/23 03:22:42;;;;;;;23.55;13.88;;;0.70;1.00;;;;;;7379553;19;20332;-68
2023/11/23 03:25:15;;;;;;;27.83;13.45;;;0.70;1.00;;;;;;7377450;19;20010;-67
2023/11/23 03:27:45;;;;;;;25.70;14.05;;;0.70;1.00;;;;;;7378307;19;20006;-67
2023/11/23 03:30:16;;;;;;;22.95;13.40;;;0.70;1.00;;;;;;7379035;19;20010;-68
2023/11/23 03:32:46;;;;;;;21.60;13.20;;;0.70;1.00;;;;;;7378658;19;20411;-68
2023/11/23 03:35:17;;;;;;;22.27;13.30;;;0.70;1.00;;;;;;7377294;19;20010;-68
2023/11/23 03:37:47;;;;;;;21.25;13.40;;;0.70;1.00;;;;;;7378873;19;20086;-68
2023/11/23 03:40:19;;;;;;;22.17;12.70;;;0.70;1.00;;;;;;7378423;19;20014;-68
2023/11/23 03:42:49;;;;;;;23.25;13.10;;;0.70;1.00;;;;;;7378271;19;20011;-68
2023/11/23 03:45:21;;;;;;;25.00;14.27;;;0.70;1.00;;;;;;7377966;19;19998;-68
2023/11/23 03:47:52;;;;;;;19.73;11.85;;;0.70;1.00;;;;;;7378726;19;20012;-68
2023/11/23 03:50:24;;;;;;;19.73;12.45;;;0.70;1.00;;;;;;7378453;19;20483;-68
2023/11/23 03:52:54;;;;;;;22.98;13.50;;;0.70;1.00;;;;;;7378939;19;20046;-69
2023/11/23 03:55:27;;;;;;;23.08;12.70;;;0.60;1.00;;;;;;7379295;19;20023;-69
2023/11/23 03:57:57;;;;;;;21.30;13.40;;;0.60;1.00;;;;;;7376869;19;20034;-69
2023/11/23 04:00:27;;;;;;;23.02;13.25;;;0.50;1.00;;;;;;7376235;19;20018;-69
2023/11/23 04:02:58;;;;;;;23.27;13.90;;;0.50;1.00;;;;;;7375884;19;20086;-68
2023/11/23 04:05:28;;;;;;;21.42;12.20;;;0.50;2.40;;;;;;7376335;19;20078;-69
2023/11/23 04:07:58;;;;;;;20.05;12.07;;;0.40;2.70;;;;;;7377895;19;20006;-68
2023/11/23 04:10:30;;;;;;;22.85;11.40;;;0.40;4.30;;;;;;7378843;19;20006;-69
2023/11/23 04:13:00;;;;;;;21.33;12.45;;;0.40;4.00;;;;;;7375178;19;20134;-68
2023/11/23 04:15:30;;;;;;;18.10;11.32;;;0.40;7.00;;;;;;7374899;19;20022;-68
2023/11/23 04:18:00;;;;;;;21.10;11.80;;;0.30;7.00;;;;;;7378534;19;20006;-68
2023/11/23 04:20:30;;;;;;;23.67;12.40;;;0.40;8.00;;;;;;7379940;19;20031;-68
2023/11/23 04:23:02;;;;;;;20.30;11.20;;;0.30;9.10;;;;;;7379509;19;20009;-67
2023/11/23 04:25:35;;;;;;;19.10;11.25;;;0.40;9.40;;;;;;7373415;19;20006;-68
2023/11/23 04:28:05;;;;;;;19.13;11.85;;;0.40;10.00;;;;;;7375369;19;20023;-68
2023/11/23 04:30:35;;;;;;;21.13;12.50;;;0.40;10.30;;;;;;7372567;19;20014;-68
2023/11/23 04:33:05;;;;;;;22.48;12.10;;;0.50;10.30;;;;;;7379030;19;20006;-68
2023/11/23 04:35:35;;;;;;;21.75;12.40;;;0.40;9.40;;;;;;7377333;19;20018;-68
2023/11/23 04:38:05;;;;;;;23.08;11.73;;;0.40;9.60;;;;;;7378474;19;20006;-68
2023/11/23 04:40:38;;;;;;;22.55;12.30;;;0.30;9.40;;;;;;7376170;19;20014;-67
2023/11/23 04:43:08;;;;;;;20.30;11.73;;;0.40;11.90;;;;;;7374706;19;20010;-68
2023/11/23 04:45:38;;;;;;;20.75;12.38;;;0.40;12.40;;;;;;7375496;19;20016;-68
2023/11/23 04:48:08;;;;;;;21.90;11.43;;;0.30;14.60;;;;;;7375868;19;20475;-68
2023/11/23 04:50:39;;;;;;;21.08;12.43;;;0.30;16.20;;;;;;7375941;19;20010;-68
2023/11/23 04:53:09;;;;;;;22.17;12.27;;;0.30;17.70;;;;;;7374911;19;20029;-68
2023/11/23 04:55:43;;;;;;;19.83;11.45;;;0.30;17.80;;;;;;7375123;19;20014;-68
2023/11/23 04:58:13;;;;;;;21.50;12.32;;;0.30;17.40;;;;;;7374400;19;20055;-68
2023/11/23 05:00:43;;;;;;;22.35;12.05;;;0.30;18.30;;;;;;7373729;19;20016;-68
2023/11/23 05:03:13;;;;;;;21.52;10.90;;;0.30;20.00;;;;;;7374450;19;20044;-68
2023/11/23 05:05:44;;;;;;;21.08;12.30;;;0.20;20.40;;;;;;7375828;19;20014;-68
2023/11/23 05:08:14;;;;;;;20.25;11.57;;;0.20;21.10;;;;;;7376160;19;20010;-68
2023/11/23 05:10:46;;;;;;;22.98;12.50;;;0.30;22.60;;;;;;7376641;19;20014;-67
2023/11/23 05:13:17;;;;;;;22.67;11.60;;;0.40;22.70;;;;;;7377061;19;20085;-68
2023/11/23 05:15:47;;;;;;;21.52;12.35;;;0.40;20.30;;;;;;7375008;19;20018;-68
2023/11/23 05:18:17;;;;;;;19.42;10.88;;;0.40;18.40;;;;;;7376629;19;20045;-67
2023/11/23 05:20:47;;;;;;;21.75;11.35;;;0.40;16.50;;;;;;7377096;19;20021;-68
2023/11/23 05:23:17;;;;;;;20.23;11.02;;;0.40;14.10;;;;;;7375385;19;20021;-68
2023/11/23 05:25:50;;;;;;;19.63;11.43;;;0.40;13.10;;;;;;7375246;19;20039;-68
2023/11/23 05:28:20;;;;;;;20.30;11.25;;;0.40;13.70;;;;;;7374530;19;20010;-68
2023/11/23 05:30:52;;;;;;;21.17;11.07;;;0.40;11.60;;;;;;7374669;19;20014;-68
2023/11/23 05:33:22;;;;;;;19.77;11.32;;;0.40;12.70;;;;;;7374385;19;20027;-68
2023/11/23 05:35:55;;;;;;;22.17;11.18;;;0.30;12.00;;;;;;7373297;19;20015;-68
2023/11/23 05:38:25;;;;;;;19.23;10.75;;;0.30;12.50;;;;;;7375137;19;20027;-67
2023/11/23 05:40:58;;;;;;;21.33;11.50;;;0.20;13.80;;;;;;7374522;19;20014;-68
2023/11/23 05:43:28;;;;;;;22.38;10.63;;;0.20;16.40;;;;;;7381910;19;20074;-68
2023/11/23 05:46:01;;;;;;;22.25;11.68;;;0.30;19.00;;;;;;7382330;19;20034;-68
2023/11/23 05:48:31;;;;;;;20.35;11.18;;;0.20;19.80;;;;;;7382265;19;20052;-69
2023/11/23 05:51:01;;;;;;;22.23;11.75;;;0.10;20.70;;;;;;7381413;19;20136;-69
2023/11/23 05:53:31;;;;;;;20.13;10.40;;;0.10;22.50;;;;;;7381172;19;20076;-68
2023/11/23 05:56:03;;;;;;;21.60;10.77;;;0.10;26.20;;;;;;7382354;19;20018;-68
2023/11/23 05:58:33;;;;;;;21.33;10.90;;;0.10;27.00;;;;;;7382728;19;20458;-67
2023/11/23 06:01:03;;;;;;;23.88;12.35;;;0.10;30.00;;;;;;7381721;19;20087;-67
2023/11/23 06:03:42;;;;;;;19.73;10.98;;;0.10;33.80;;;;;;7376340;19;20086;-67
2023/11/23 06:06:21;;;;;;;18.67;10.82;;;0.10;37.60;;;;;;7380685;19;20011;-68
2023/11/23 06:08:52;;;;;;;21.20;11.05;;;0.20;37.90;;;;;;7381329;19;20040;-68
2023/11/23 06:11:25;;;;;;;20.65;10.43;;;0.20;39.40;;;;;;7380749;19;20014;-67
2023/11/23 06:13:55;;;;;;;19.88;10.55;;;0.20;39.90;;;;;;7381047;19;20006;-67
2023/11/23 06:16:25;;;;;;;20.88;10.93;;;0.20;38.10;;;;;;7379363;19;20007;-67
2023/11/23 06:18:55;;;;;;;20.00;11.13;;;0.20;37.70;;;;;;7380379;19;20042;-67
2023/11/23 06:21:27;;;;;;;21.10;11.13;;;0.30;39.40;;;;;;7381896;19;20013;-68
2023/11/23 06:23:58;;;;;;;18.58;10.25;;;0.40;34.80;;;;;;7380107;19;20013;-68
2023/11/23 06:26:30;;;;;;;19.33;10.48;;;0.30;28.90;;;;;;7381481;19;20433;-67
2023/11/23 06:29:00;;;;;;;17.30;10.02;;;0.30;27.30;;;;;;7382512;19;20018;-67
2023/11/23 06:31:31;;;;;;;18.58;10.55;;;0.30;26.30;;;;;;7381715;19;20093;-68
2023/11/23 06:34:01;;;;;;;20.73;11.98;;;0.20;27.90;;;;;;7379981;19;20083;-68
2023/11/23 06:36:31;;;;;;;25.50;12.52;;;0.30;29.70;;;;;;7377608;19;20420;-68
2023/11/23 06:39:01;;;;;;;37.95;17.08;;;0.30;29.40;;;;;;7380652;19;20032;-68
2023/11/23 06:41:34;;;;;;;37.60;16.88;;;0.40;27.40;;;;;;7379716;19;20028;-68
2023/11/23 06:44:04;;;;;;;34.40;16.80;;;0.30;26.70;;;;;;7380106;19;20452;-68
2023/11/23 06:46:34;;;;;;;30.23;14.48;;;0.30;25.60;;;;;;7379044;19;20014;-67
2023/11/23 06:49:04;;;;;;;26.27;13.00;;;0.30;26.20;;;;;;7378534;19;20089;-66
2023/11/23 06:51:36;;;;;;;26.98;12.98;;;0.30;26.60;;;;;;7378912;19;19998;-67
2023/11/23 06:54:09;;;;;;;34.45;12.27;;;0.40;27.20;;;;;;7379680;19;20019;-70
2023/11/23 06:56:42;;;;;;;23.25;12.77;;;0.40;23.40;;;;;;7381385;19;20498;-67
2023/11/23 06:59:12;;;;;;;22.08;11.68;;;0.40;23.40;;;;;;7378582;19;20036;-69
2023/11/23 07:01:42;;;;;;;23.67;10.98;;;0.40;22.60;;;;;;7378377;19;20037;-70
2023/11/23 07:04:12;;;;;;;20.33;11.10;;;0.50;21.20;;;;;;7378929;19;20003;-68
2023/11/23 07:06:43;;;;;;;19.48;11.13;;;0.60;16.10;;;;;;7378505;19;20070;-67
2023/11/23 07:09:14;;;;;;;18.90;10.45;;;0.60;13.60;;;;;;7379166;19;20006;-66
2023/11/23 07:11:49;;;;;;;20.10;10.48;;;0.70;13.30;;;;;;7379129;19;20010;-67
2023/11/23 07:14:19;;;;;;;19.52;10.65;;;0.70;9.50;;;;;;7376868;19;20018;-67
2023/11/23 07:16:51;;;;;;;18.52;10.43;;;0.80;6.10;;;;;;7376791;19;20007;-67
2023/11/23 07:19:22;;;;;;;18.67;10.55;;;0.80;3.40;;;;;;7378512;19;20325;-67
2023/11/23 07:21:52;;;;;;;18.95;10.23;;;0.90;2.30;;;;;;7378879;19;20022;-67
2023/11/23 07:24:22;;;;;;;17.85;9.75;;;0.90;1.00;;;;;;7377515;19;20388;-67
2023/11/23 07:26:55;;;;;;;19.33;10.75;;;0.90;1.00;;;;;;7378574;19;20048;-67
2023/11/23 07:29:25;;;;;;;15.77;9.60;;;1.00;1.00;;;;;;7378052;19;20015;-68
2023/11/23 07:31:55;;;;;;;15.18;8.88;;;1.10;1.00;;;;;;7378495;19;20006;-67
2023/11/23 07:34:25;;;;;;;14.95;9.07;;;1.20;1.00;;;;;;7378124;19;20462;-67
2023/11/23 07:36:55;;;;;;;17.98;9.20;;;1.20;1.00;;;;;;7377789;19;20474;-67
2023/11/23 07:39:26;;;;;;;17.25;9.05;;;1.30;1.00;;;;;;7378098;19;20011;-67
2023/11/23 07:41:59;;;;;;;16.40;8.75;;;1.40;1.00;;;;;;7378812;19;20114;-67
2023/11/23 07:44:29;;;;;;;13.45;8.18;;;1.50;1.00;;;;;;7377506;19;20086;-68
2023/11/23 07:46:59;;;;;;;14.85;9.23;;;1.60;1.00;;;;;;7378053;19;20010;-66
2023/11/23 07:49:30;;;;;;;16.27;8.95;;;1.60;1.00;;;;;;7377621;19;20014;-67
2023/11/23 07:52:00;;;;;;;14.85;8.60;;;1.70;1.00;;;;;;7378145;19;20006;-67
2023/11/23 07:54:29;;;;;;;13.35;8.00;;;1.80;1.00;;;;;;7378066;19;20372;-67
2023/11/23 07:57:02;;;;;;;15.40;8.38;;;1.90;1.00;;;;;;7378251;19;20381;-67
2023/11/23 07:59:34;;;;;;;13.70;7.95;;;2.00;1.00;;;;;;7378384;19;20031;-67
2023/11/23 08:02:05;;;;;;;12.68;7.60;;;2.10;1.00;;;;;;7378420;19;20033;-67
2023/11/23 08:04:35;;;;;;;14.80;7.88;;;2.20;1.00;;;;;;7375764;19;20023;-67
2023/11/23 08:07:06;;;;;;;10.73;7.22;;;2.40;1.00;;;;;;7375688;19;20023;-67
2023/11/23 08:09:36;;;;;;;14.05;7.95;;;2.60;1.00;;;;;;7377450;19;20025;-69
2023/11/23 08:12:10;;;;;;;13.32;8.20;;;2.90;1.00;;;;;;7377465;19;20637;-67
2023/11/23 08:14:40;;;;;;;11.85;7.18;;;3.00;1.00;;;;;;7377153;19;20324;-67
2023/11/23 08:17:11;;;;;;;14.60;7.03;;;3.10;1.00;;;;;;7375706;19;20017;-67
2023/11/23 08:19:43;;;;;;;14.27;7.68;;;3.20;1.00;;;;;;7375677;19;20073;-66
2023/11/23 08:22:13;;;;;;;11.07;6.68;;;3.30;1.00;;;;;;7377098;19;20018;-67
2023/11/23 08:24:44;;;;;;;10.75;6.65;;;3.50;1.00;;;;;;7376423;19;20014;-67
2023/11/23 08:27:17;;;;;;;10.68;6.00;;;3.50;1.00;;;;;;7378870;19;20031;-67
2023/11/23 08:29:47;;;;;;;11.68;6.18;;;3.60;1.00;;;;;;7375917;19;20010;-67
2023/11/23 08:32:18;;;;;;;9.60;6.32;;;3.70;1.00;;;;;;7376786;19;20087;-66
2023/11/23 08:34:48;;;;;;;9.27;5.93;;;3.70;1.00;;;;;;7375826;19;20010;-67
2023/11/23 08:37:19;;;;;;;8.65;6.00;;;3.70;1.00;;;;;;7377171;19;20014;-67
2023/11/23 08:39:49;;;;;;;9.48;6.38;;;3.90;1.00;;;;;;7375964;19;20017;-67
2023/11/23 08:42:22;;;;;;;13.07;6.80;;;3.80;1.00;;;;;;7377471;19;20006;-67
2023/11/23 08:44:53;;;;;;;9.27;5.88;;;3.90;1.00;;;;;;7375151;19;20338;-67
2023/11/23 08:47:23;;;;;;;9.35;6.03;;;4.00;1.00;;;;;;7375652;19;20034;-66
2023/11/23 08:49:53;;;;;;;10.57;5.90;;;4.10;1.00;;;;;;7377159;19;20312;-67
2023/11/23 08:52:24;;;;;;;25.40;14.88;;;4.10;1.00;;;;;;7376336;19;20010;-67
2023/11/23 08:54:54;;;;;;;10.43;7.30;;;4.20;1.00;;;;;;7374412;19;20015;-67
2023/11/23 08:57:28;;;;;;;9.85;5.78;;;4.20;1.00;;;;;;7376179;19;20026;-67
2023/11/23 08:59:58;;;;;;;7.63;5.13;;;4.30;1.00;;;;;;7376249;19;20031;-68
2023/11/23 09:02:28;;;;;;;12.38;6.35;;;4.30;1.00;;;;;;7379365;19;20344;-67
2023/11/23 09:04:59;;;;;;;7.35;5.28;;;4.40;1.00;;;;;;7376841;19;20006;-68
2023/11/23 09:07:29;;;;;;;8.85;5.93;;;4.50;1.00;;;;;;7377423;19;20018;-68
2023/11/23 09:09:59;;;;;;;8.10;5.30;;;4.60;1.00;;;;;;7376752;19;20011;-68
2023/11/23 09:12:33;;;;;;;18.90;9.75;;;4.60;1.00;;;;;;7375882;19;20022;-67
2023/11/23 09:15:04;;;;;;;12.20;6.32;;;4.60;1.00;;;;;;7374868;19;20365;-67
2023/11/23 09:17:35;;;;;;;14.48;6.97;;;4.60;1.00;;;;;;7377833;19;20022;-68
2023/11/23 09:20:08;;;;;;;10.52;6.75;;;4.80;1.00;;;;;;7382874;19;20022;-67
2023/11/23 09:22:39;;;;;;;13.82;6.53;;;4.80;1.00;;;;;;7381583;19;20014;-67
2023/11/23 09:25:11;;;;;;;10.88;6.80;;;4.70;1.00;;;;;;7381032;19;20010;-68
2023/11/23 09:27:44;;;;;;;10.20;6.50;;;4.70;1.00;;;;;;7380817;19;20030;-67
2023/11/23 09:30:15;;;;;;;14.20;5.78;;;4.90;1.00;;;;;;7381527;19;19998;-66
2023/11/23 09:32:45;;;;;;;11.23;6.80;;;5.00;1.00;;;;;;7382185;19;20036;-66
2023/11/23 09:35:16;;;;;;;8.88;5.90;;;5.00;1.00;;;;;;7380758;19;20077;-66
2023/11/23 09:37:47;;;;;;;12.45;6.82;;;5.00;1.00;;;;;;7381877;19;20006;-66
2023/11/23 09:40:20;;;;;;;10.07;6.10;;;5.00;1.00;;;;;;7382116;19;20090;-66
2023/11/23 09:42:53;;;;;;;9.70;5.72;;;4.90;1.00;;;;;;7380999;19;20090;-66
2023/11/23 09:45:24;;;;;;;11.52;6.80;;;5.00;1.00;;;;;;7375217;19;20311;-66
2023/11/23 09:47:56;;;;;;;8.27;5.85;;;5.10;1.00;;;;;;7381478;19;20044;-66
2023/11/23 09:50:29;;;;;;;12.70;6.50;;;5.10;1.00;;;;;;7380239;19;20023;-67
2023/11/23 09:53:08;;;;;;;12.65;5.47;;;5.10;1.00;;;;;;7380993;19;20015;-68
2023/11/23 09:55:38;;;;;;;12.85;6.10;;;5.20;1.00;;;;;;7380193;19;20011;-68
2023/11/23 09:58:11;;;;;;;10.25;6.18;;;5.30;1.00;;;;;;7379770;19;20021;-68
2023/11/23 10:00:41;;;;;;;11.80;6.63;;;5.30;1.00;;;;;;7381368;19;20011;-66
2023/11/23 10:03:14;;;;;;;8.07;5.07;;;5.30;1.00;;;;;;7381864;19;20027;-67
2023/11/23 10:05:45;;;;;;;8.43;4.70;;;5.40;1.00;;;;;;7379626;19;20014;-68
2023/11/23 10:08:15;;;;;;;16.80;11.32;;;5.50;1.00;;;;;;7380603;19;20067;-68
2023/11/23 10:10:45;;;;;;;7.72;4.82;;;5.50;1.00;;;;;;7380129;19;20363;-67
2023/11/23 10:13:20;;;;;;;6.70;4.35;;;5.60;1.00;;;;;;7379829;19;20013;-67
2023/11/23 10:15:50;;;;;;;9.60;5.43;;;5.60;1.00;;;;;;7376736;19;20005;-68
2023/11/23 10:18:20;;;;;;;4.65;3.40;;;5.80;1.00;;;;;;7381463;19;20018;-68
2023/11/23 10:20:51;;;;;;;4.90;3.50;;;5.80;1.00;;;;;;7382693;19;20011;-68
2023/11/23 10:23:24;;;;;;;6.03;4.25;;;5.80;1.00;;;;;;7381057;19;20013;-68
2023/11/23 10:25:54;;;;;;;4.60;3.80;;;5.90;1.00;;;;;;7377115;19;20007;-67
2023/11/23 10:28:31;;;;;;;6.82;3.95;;;6.00;1.00;;;;;;7377426;19;20422;-67
2023/11/23 10:31:05;;;;;;;5.40;3.85;;;6.00;1.00;;;;;;7379488;19;20467;-67
2023/11/23 10:33:36;;;;;;;8.47;4.20;;;6.00;1.00;;;;;;7380331;19;20025;-67
2023/11/23 10:36:08;;;;;;;6.50;4.25;;;6.00;1.00;;;;;;7379240;19;20031;-68
2023/11/23 10:38:41;;;;;;;6.32;4.30;;;6.00;1.00;;;;;;7379001;19;20010;-67
2023/11/23 10:41:14;;;;;;;6.43;4.30;;;6.10;1.00;;;;;;7379116;19;20026;-68
2023/11/23 10:43:48;;;;;;;8.10;3.90;;;6.10;1.00;;;;;;7379692;19;20389;-68
2023/11/23 10:46:20;;;;;;;7.53;4.20;;;6.00;1.00;;;;;;7379606;19;20078;-68
2023/11/23 10:48:52;;;;;;;6.47;4.38;;;6.00;1.00;;;;;;7381086;19;20527;-68
2023/11/23 10:51:26;;;;;;;17.45;10.07;;;6.00;1.00;;;;;;7381213;19;20466;-68
2023/11/23 10:53:56;;;;;;;8.73;4.25;;;6.10;1.00;;;;;;7378402;19;20070;-68
2023/11/23 10:56:30;;;;;;;8.10;4.10;;;6.10;1.00;;;;;;7378996;19;20414;-67
2023/11/23 10:59:08;;;;;;;6.07;3.90;;;6.00;1.00;;;;;;7380171;19;20010;-68
2023/11/23 11:01:40;;;;;;;7.38;4.00;;;6.10;1.00;;;;;;7379658;19;20014;-68
2023/11/23 11:04:10;;;;;;;4.80;3.50;;;6.20;1.00;;;;;;7378654;19;20040;-68
2023/11/23 11:06:41;;;;;;;6.57;3.88;;;6.20;1.00;;;;;;7378822;19;20013;-68
2023/11/23 11:09:16;;;;;;;5.50;3.78;;;6.20;1.00;;;;;;7380210;19;20017;-68
2023/11/23 11:11:48;;;;;;;10.57;7.35;;;6.20;1.00;;;;;;7379475;19;20010;-68
2023/11/23 11:14:21;;;;;;;8.02;4.53;;;6.40;1.00;;;;;;7379726;19;20017;-68
2023/11/23 11:17:02;;;;;;;5.93;3.63;;;6.50;1.00;;;;;;7379495;19;20006;-68
2023/11/23 11:19:44;;;;;;;8.00;4.05;;;6.50;1.00;;;;;;7377362;19;20014;-68
2023/11/23 11:22:15;;;;;;;4.95;3.47;;;6.40;1.00;;;;;;7379780;19;20010;-67
2023/11/23 11:24:47;;;;;;;7.53;4.18;;;6.40;1.00;;;;;;7377852;19;23318;-67
2023/11/23 11:27:21;;;;;;;7.60;3.88;;;6.50;1.00;;;;;;7379017;19;20498;-68
2023/11/23 11:29:54;;;;;;;6.65;3.70;;;6.50;1.00;;;;;;7381852;19;20020;-68
2023/11/23 11:32:25;;;;;;;5.22;3.58;;;6.60;1.00;;;;;;7381776;19;20011;-68
2023/11/23 11:35:03;;;;;;;4.68;3.28;;;6.50;1.00;;;;;;7379037;19;20010;-67
2023/11/23 11:37:34;;;;;;;5.45;3.75;;;6.50;1.00;;;;;;7380559;19;20021;-68
2023/11/23 11:40:05;;;;;;;4.72;3.47;;;6.60;1.00;;;;;;7379985;19;20422;-66
2023/11/23 11:42:39;;;;;;;6.78;3.00;;;6.70;1.00;;;;;;7379774;19;20010;-66
2023/11/23 11:45:15;;;;;;;3.72;2.90;;;6.80;1.00;;;;;;7381032;19;20024;-66
2023/11/23 11:47:48;;;;;;;6.00;3.63;;;6.80;1.00;;;;;;7380638;19;20376;-67
2023/11/23 11:50:20;;;;;;;5.32;3.45;;;6.80;1.00;;;;;;7379385;19;20014;-67
2023/11/23 11:52:51;;;;;;;5.40;3.67;;;6.80;1.00;;;;;;7377702;19;20355;-67
2023/11/23 11:55:22;;;;;;;7.18;4.65;;;6.90;1.00;;;;;;7374916;19;20010;-67
2023/11/23 11:57:52;;;;;;;9.55;6.10;;;6.90;1.00;;;;;;7378209;19;20093;-67
2023/11/23 12:00:25;;;;;;;9.60;5.93;;;6.80;1.00;;;;;;7378900;19;20014;-67
2023/11/23 12:02:55;;;;;;;9.85;6.40;;;6.60;1.00;;;;;;7378850;19;20030;-68
2023/11/23 12:05:25;;;;;;;9.38;6.50;;;6.50;1.00;;;;;;7377370;19;20002;-68
2023/11/23 12:07:58;;;;;;;8.20;6.10;;;6.50;1.00;;;;;;7378506;19;20471;-67
2023/11/23 12:10:38;;;;;;;10.05;6.38;;;6.40;1.00;;;;;;7378848;19;20018;-67
2023/11/23 12:13:14;;;;;;;12.25;7.53;;;6.50;1.00;;;;;;7374532;19;20010;-67
2023/11/23 12:15:47;;;;;;;10.25;6.80;;;6.60;1.00;;;;;;7372430;19;20407;-67
2023/11/23 12:18:17;;;;;;;11.18;7.85;;;6.50;1.00;;;;;;7376121;19;20333;-68
2023/11/23 12:20:47;;;;;;;13.48;7.90;;;6.50;1.00;;;;;;7377528;19;20540;-67
2023/11/23 12:23:17;;;;;;;15.90;8.18;;;6.30;1.00;;;;;;7376912;19;20010;-68
2023/11/23 12:25:48;;;;;;;12.52;7.85;;;6.10;1.00;;;;;;7376776;19;20075;-68
2023/11/23 12:28:20;;;;;;;11.13;7.40;;;6.10;1.00;;;;;;7376691;19;20478;-68
2023/11/23 12:30:53;;;;;;;11.50;7.78;;;6.00;1.00;;;;;;7377143;19;20010;-68
2023/11/23 12:33:23;;;;;;;12.32;7.80;;;6.00;1.00;;;;;;7377590;19;20031;-67
2023/11/23 12:35:53;;;;;;;12.70;8.30;;;6.00;1.00;;;;;;7374291;19;20014;-66
2023/11/23 12:38:23;;;;;;;13.77;7.72;;;6.00;1.00;;;;;;7376507;19;20010;-68
2023/11/23 12:40:53;;;;;;;14.48;7.72;;;6.10;1.00;;;;;;7376627;19;20014;-67
2023/11/23 12:43:23;;;;;;;12.65;7.95;;;6.10;1.00;;;;;;7375969;19;20337;-67
2023/11/23 12:45:57;;;;;;;14.95;7.97;;;6.20;1.00;;;;;;7374333;19;20017;-67
2023/11/23 12:48:27;;;;;;;13.32;8.55;;;6.20;1.00;;;;;;7375385;19;20342;-67
2023/11/23 12:50:58;;;;;;;12.05;7.60;;;6.10;1.00;;;;;;7375737;19;20018;-67
2023/11/23 12:53:29;;;;;;;15.38;8.45;;;5.90;1.00;;;;;;7375656;19;20014;-67
2023/11/23 12:55:59;;;;;;;11.90;7.60;;;5.90;1.00;;;;;;7374037;19;20011;-67
2023/11/23 12:58:29;;;;;;;11.95;7.63;;;6.00;1.00;;;;;;7375031;19;20015;-67
2023/11/23 13:01:02;;;;;;;12.50;7.93;;;6.00;1.00;;;;;;7374678;19;20014;-67
2023/11/23 13:03:32;;;;;;;10.57;7.20;;;6.10;1.00;;;;;;7375829;19;20018;-67
2023/11/23 13:06:03;;;;;;;8.85;6.85;;;6.20;1.00;;;;;;7370838;19;20665;-68
2023/11/23 13:08:34;;;;;;;8.75;6.53;;;6.20;1.00;;;;;;7375165;19;20098;-68
2023/11/23 13:11:04;;;;;;;8.98;6.53;;;6.20;1.00;;;;;;7375542;19;20007;-68